createdAt,value
2022-09-25T00:01:19.346Z,14.20
2022-09-25T00:03:46.534Z,14.10
2022-09-25T00:06:18.904Z,14.10
2022-09-25T00:08:46.961Z,14.10
2022-09-25T00:11:16.833Z,14.10
2022-09-25T00:13:46.641Z,14.10
2022-09-25T00:16:16.755Z,14.20
2022-09-25T00:19:02.676Z,14.10
2022-09-25T00:21:32.569Z,14.10
2022-09-25T00:24:09.695Z,14.00
2022-09-25T00:26:40.099Z,14.10
2022-09-25T00:29:13.737Z,14.00
2022-09-25T00:31:46.526Z,14.00
2022-09-25T00:34:13.423Z,14.00
2022-09-25T00:36:42.470Z,14.00
2022-09-25T00:39:10.589Z,14.10
2022-09-25T00:41:37.481Z,14.00
2022-09-25T00:44:24.656Z,13.90
2022-09-25T00:46:51.622Z,14.00
2022-09-25T00:49:24.472Z,14.00
2022-09-25T00:51:58.896Z,13.90
2022-09-25T00:54:33.689Z,13.80
2022-09-25T00:57:05.025Z,13.90
2022-09-25T00:59:37.852Z,13.80
2022-09-25T01:02:10.163Z,14.00
2022-09-25T01:04:38.212Z,13.90
2022-09-25T01:07:09.192Z,13.80
2022-09-25T01:09:36.637Z,13.80
2022-09-25T01:12:04.259Z,13.90
2022-09-25T01:14:34.109Z,13.90
2022-09-25T01:17:34.565Z,14.00
2022-09-25T01:20:07.522Z,14.00
2022-09-25T01:23:10.033Z,13.80
2022-09-25T01:26:00.423Z,13.80
2022-09-25T01:29:07.182Z,13.80
2022-09-25T01:31:55.724Z,13.80
2022-09-25T01:34:40.064Z,13.80
2022-09-25T01:37:21.195Z,13.80
2022-09-25T01:40:33.470Z,13.80
2022-09-25T01:43:18.755Z,13.80
2022-09-25T01:45:57.631Z,13.70
2022-09-25T01:48:27.770Z,13.70
2022-09-25T01:51:05.522Z,13.70
2022-09-25T01:53:45.833Z,13.70
2022-09-25T01:56:20.400Z,13.70
2022-09-25T01:58:53.912Z,13.60
2022-09-25T02:01:30.631Z,13.60
2022-09-25T02:04:12.468Z,13.50
2022-09-25T02:06:44.458Z,13.50
2022-09-25T02:09:20.770Z,13.50
2022-09-25T02:11:53.779Z,13.50
2022-09-25T02:14:28.033Z,13.40
2022-09-25T02:16:58.668Z,13.30
2022-09-25T02:19:44.960Z,13.30
2022-09-25T02:22:26.302Z,13.30
2022-09-25T02:25:04.678Z,13.20
2022-09-25T02:27:34.144Z,13.20
2022-09-25T02:30:02.144Z,13.20
2022-09-25T02:32:32.255Z,13.10
2022-09-25T02:35:00.216Z,13.10
2022-09-25T02:37:27.642Z,13.00
2022-09-25T02:39:58.072Z,13.00
2022-09-25T02:42:30.730Z,13.00
2022-09-25T02:45:05.772Z,13.00
2022-09-25T02:47:44.552Z,13.10
2022-09-25T02:50:22.617Z,13.00
2022-09-25T02:53:13.941Z,13.00
2022-09-25T02:55:57.534Z,13.00
2022-09-25T02:58:27.214Z,12.90
2022-09-25T03:00:57.138Z,13.00
2022-09-25T03:03:27.241Z,13.00
2022-09-25T03:05:57.911Z,12.90
2022-09-25T03:08:41.599Z,12.90
2022-09-25T03:11:12.501Z,12.80
2022-09-25T03:13:40.309Z,12.80
2022-09-25T03:16:21.990Z,12.80
2022-09-25T03:18:49.264Z,12.80
2022-09-25T03:21:16.225Z,12.70
2022-09-25T03:23:44.062Z,12.70
2022-09-25T03:26:11.553Z,12.70
2022-09-25T03:28:38.629Z,12.60
2022-09-25T03:31:10.539Z,12.60
2022-09-25T03:33:41.948Z,12.60
2022-09-25T03:36:18.447Z,12.50
2022-09-25T03:38:49.171Z,12.50
2022-09-25T03:41:20.174Z,12.50
2022-09-25T03:43:51.899Z,12.50
2022-09-25T03:46:21.812Z,12.50
2022-09-25T03:48:50.054Z,12.40
2022-09-25T03:51:16.915Z,12.40
2022-09-25T03:53:43.909Z,12.30
2022-09-25T03:56:13.829Z,12.30
2022-09-25T03:58:40.792Z,12.30
2022-09-25T04:01:08.021Z,12.40
2022-09-25T04:03:36.023Z,12.40
2022-09-25T04:06:04.999Z,12.30
2022-09-25T04:08:33.552Z,12.30
2022-09-25T04:11:02.224Z,12.30
2022-09-25T04:13:32.485Z,12.20
2022-09-25T04:16:01.283Z,12.20
2022-09-25T04:18:31.482Z,12.20
2022-09-25T04:21:00.206Z,12.20
2022-09-25T04:23:27.676Z,12.20
2022-09-25T04:25:58.961Z,12.20
2022-09-25T04:28:26.302Z,12.20
2022-09-25T04:30:53.430Z,12.20
2022-09-25T04:33:38.734Z,12.30
2022-09-25T04:36:06.978Z,12.20
2022-09-25T04:38:34.980Z,12.20
2022-09-25T04:41:03.479Z,12.20
2022-09-25T04:43:32.143Z,12.30
2022-09-25T04:46:08.270Z,12.10
2022-09-25T04:48:36.639Z,12.20
2022-09-25T04:51:04.567Z,12.10
2022-09-25T04:53:36.826Z,12.10
2022-09-25T04:56:15.559Z,12.10
2022-09-25T04:58:48.113Z,12.10
2022-09-25T05:01:15.865Z,12.00
2022-09-25T05:03:43.078Z,12.00
2022-09-25T05:06:10.102Z,12.00
2022-09-25T05:08:50.206Z,11.90
2022-09-25T05:11:21.384Z,11.90
2022-09-25T05:13:54.589Z,11.90
2022-09-25T05:16:21.650Z,11.90
2022-09-25T05:18:49.973Z,11.90
2022-09-25T05:21:16.853Z,12.00
2022-09-25T05:23:43.810Z,11.90
2022-09-25T05:26:11.673Z,11.90
2022-09-25T05:28:38.518Z,11.90
2022-09-25T05:31:06.108Z,11.90
2022-09-25T05:33:35.718Z,11.90
2022-09-25T05:36:05.591Z,11.90
2022-09-25T05:38:35.119Z,11.80
2022-09-25T05:41:07.007Z,11.80
2022-09-25T05:43:35.228Z,11.90
2022-09-25T05:46:05.152Z,11.80
2022-09-25T05:48:34.257Z,11.90
2022-09-25T05:51:02.861Z,11.80
2022-09-25T05:53:32.775Z,11.80
2022-09-25T05:56:02.601Z,11.60
2022-09-25T05:58:31.035Z,11.50
2022-09-25T06:01:05.726Z,11.40
2022-09-25T06:03:34.626Z,11.40
2022-09-25T06:06:02.243Z,11.40
2022-09-25T06:08:32.843Z,11.30
2022-09-25T06:11:02.576Z,11.40
2022-09-25T06:13:33.595Z,11.60
2022-09-25T06:16:01.614Z,11.60
2022-09-25T06:18:28.579Z,11.50
2022-09-25T06:21:04.609Z,11.50
2022-09-25T06:23:32.667Z,11.40
2022-09-25T06:26:05.516Z,11.50
2022-09-25T06:28:32.924Z,11.60
2022-09-25T06:31:04.109Z,11.70
2022-09-25T06:33:31.853Z,11.60
2022-09-25T06:36:00.309Z,11.60
2022-09-25T06:38:28.451Z,11.60
2022-09-25T06:40:59.632Z,11.70
2022-09-25T06:43:27.788Z,11.80
2022-09-25T06:45:54.815Z,11.90
2022-09-25T06:48:22.282Z,11.90
2022-09-25T06:50:56.881Z,11.90
2022-09-25T06:53:25.602Z,11.90
2022-09-25T06:55:57.024Z,11.90
2022-09-25T06:58:26.824Z,12.00
2022-09-25T07:00:56.146Z,11.90
2022-09-25T07:03:41.933Z,12.10
2022-09-25T07:06:10.932Z,12.20
2022-09-25T07:08:38.413Z,12.40
2022-09-25T07:11:06.178Z,12.50
2022-09-25T07:13:36.946Z,12.50
2022-09-25T07:16:06.618Z,12.60
2022-09-25T07:18:34.957Z,12.70
2022-09-25T07:21:07.473Z,12.70
2022-09-25T07:23:35.548Z,12.80
2022-09-25T07:26:10.757Z,12.90
2022-09-25T07:28:39.368Z,12.90
2022-09-25T07:31:21.544Z,13.10
2022-09-25T07:33:48.572Z,13.30
2022-09-25T07:36:16.736Z,13.40
2022-09-25T07:38:44.208Z,13.40
2022-09-25T07:41:12.992Z,13.50
2022-09-25T07:43:43.243Z,13.60
2022-09-25T07:46:11.983Z,13.60
2022-09-25T07:48:41.411Z,13.70
2022-09-25T07:51:11.371Z,14.00
2022-09-25T07:53:41.197Z,14.20
2022-09-25T07:56:11.687Z,14.50
2022-09-25T07:58:38.963Z,14.70
2022-09-25T08:01:08.341Z,15.00
2022-09-25T08:03:36.387Z,15.10
2022-09-25T08:06:10.496Z,15.00
2022-09-25T08:08:38.127Z,15.00
2022-09-25T08:11:17.198Z,14.90
2022-09-25T08:13:45.776Z,15.00
2022-09-25T08:16:15.905Z,14.90
2022-09-25T08:18:46.638Z,14.90
2022-09-25T08:21:17.827Z,14.90
2022-09-25T08:23:49.491Z,14.90
2022-09-25T08:26:21.262Z,15.00
2022-09-25T08:28:52.207Z,15.00
2022-09-25T08:31:19.427Z,15.00
2022-09-25T08:33:48.030Z,15.10
2022-09-25T08:36:17.981Z,15.10
2022-09-25T08:38:45.575Z,15.10
2022-09-25T08:41:24.415Z,15.10
2022-09-25T08:44:28.437Z,15.10
2022-09-25T08:47:25.976Z,15.20
2022-09-25T08:50:10.953Z,15.30
2022-09-25T08:52:41.849Z,15.40
2022-09-25T08:55:17.207Z,15.40
2022-09-25T08:57:45.805Z,15.40
2022-09-25T09:00:13.156Z,15.40
2022-09-25T09:02:43.750Z,15.50
2022-09-25T09:05:40.283Z,15.70
2022-09-25T09:08:15.369Z,15.50
2022-09-25T09:11:26.439Z,15.50
2022-09-25T09:14:04.876Z,15.60
2022-09-25T09:16:41.310Z,15.60
2022-09-25T09:19:11.141Z,15.70
2022-09-25T09:21:45.158Z,15.90
2022-09-25T09:24:27.868Z,16.00
2022-09-25T09:27:11.425Z,16.10
2022-09-25T09:30:05.442Z,16.10
2022-09-25T09:32:43.024Z,16.30
2022-09-25T09:35:38.275Z,16.30
2022-09-25T09:38:21.560Z,16.30
2022-09-25T09:41:13.758Z,16.30
2022-09-25T09:44:20.781Z,16.30
2022-09-25T09:47:07.515Z,16.20
2022-09-25T09:50:00.050Z,16.20
2022-09-25T09:52:36.520Z,16.40
2022-09-25T09:55:20.552Z,16.40
2022-09-25T09:58:00.006Z,16.50
2022-09-25T10:00:28.943Z,16.50
2022-09-25T10:03:16.306Z,16.50
2022-09-25T10:05:51.223Z,16.60
2022-09-25T10:08:20.408Z,16.50
2022-09-25T10:10:57.990Z,16.50
2022-09-25T10:13:36.244Z,16.50
2022-09-25T10:16:19.040Z,16.50
2022-09-25T10:19:23.799Z,16.60
2022-09-25T10:22:16.995Z,16.80
2022-09-25T10:25:02.874Z,16.90
2022-09-25T10:27:40.581Z,17.00
2022-09-25T10:33:04.651Z,17.30
2022-09-25T10:35:45.850Z,17.40
2022-09-25T10:38:34.205Z,17.60
2022-09-25T10:41:20.559Z,17.80
2022-09-25T10:43:56.616Z,18.00
2022-09-25T10:46:53.394Z,17.90
2022-09-25T10:49:46.267Z,18.00
2022-09-25T10:52:15.575Z,17.90
2022-09-25T10:54:45.482Z,18.00
2022-09-25T10:57:34.699Z,18.00
2022-09-25T11:00:04.498Z,18.20
2022-09-25T11:02:39.140Z,18.60
2022-09-25T11:05:15.649Z,19.10
2022-09-25T11:07:52.310Z,19.40
2022-09-25T11:10:31.432Z,19.50
2022-09-25T11:12:59.014Z,19.30
2022-09-25T11:15:27.710Z,19.20
2022-09-25T11:17:57.064Z,19.00
2022-09-25T11:20:30.927Z,18.80
2022-09-25T11:23:05.612Z,18.70
2022-09-25T11:25:59.258Z,18.60
2022-09-25T11:28:35.276Z,18.70
2022-09-25T11:31:10.187Z,18.90
2022-09-25T11:33:55.544Z,19.10
2022-09-25T11:36:43.522Z,19.50
2022-09-25T11:39:48.866Z,19.80
2022-09-25T11:42:31.557Z,20.40
2022-09-25T11:45:01.436Z,20.60
2022-09-25T11:47:37.097Z,20.80
2022-09-25T11:50:04.920Z,21.10
2022-09-25T11:52:40.144Z,21.00
2022-09-25T11:55:34.545Z,20.90
2022-09-25T11:58:30.052Z,20.60
2022-09-25T12:01:16.437Z,20.00
2022-09-25T12:04:17.482Z,19.70
2022-09-25T12:07:03.277Z,19.60
2022-09-25T12:10:04.484Z,19.40
2022-09-25T12:12:50.670Z,19.10
2022-09-25T12:15:24.216Z,18.80
2022-09-25T12:18:09.943Z,18.70
2022-09-25T12:20:59.974Z,19.60
2022-09-25T12:23:58.012Z,20.80
2022-09-25T12:26:47.799Z,21.60
2022-09-25T12:29:38.911Z,21.60
2022-09-25T12:32:13.155Z,21.30
2022-09-25T12:35:06.142Z,20.80
2022-09-25T12:37:38.319Z,20.60
2022-09-25T12:40:23.779Z,20.30
2022-09-25T12:43:03.629Z,20.00
2022-09-25T12:46:00.521Z,20.30
2022-09-25T12:48:37.578Z,21.40
2022-09-25T12:51:16.555Z,22.70
2022-09-25T12:53:59.096Z,23.60
2022-09-25T12:56:43.981Z,23.70
2022-09-25T12:59:17.402Z,24.00
2022-09-25T13:02:17.747Z,24.20
2022-09-25T13:05:08.135Z,23.80
2022-09-25T13:08:14.991Z,22.60
2022-09-25T13:10:48.718Z,21.80
2022-09-25T13:13:21.384Z,21.10
2022-09-25T13:15:52.326Z,21.00
2022-09-25T13:18:22.552Z,21.20
2022-09-25T13:20:54.975Z,21.50
2022-09-25T13:23:29.741Z,21.80
2022-09-25T13:26:01.591Z,22.40
2022-09-25T13:28:41.751Z,22.00
2022-09-25T13:31:12.360Z,21.90
2022-09-25T13:33:53.560Z,21.40
2022-09-25T13:36:25.076Z,21.00
2022-09-25T13:39:17.246Z,20.80
2022-09-25T13:41:59.585Z,20.50
2022-09-25T13:44:42.574Z,20.30
2022-09-25T13:47:24.875Z,20.10
2022-09-25T13:50:10.530Z,20.00
2022-09-25T13:52:40.221Z,19.80
2022-09-25T13:55:14.534Z,19.50
2022-09-25T13:57:59.893Z,19.40
2022-09-25T14:00:37.341Z,19.30
2022-09-25T14:03:05.526Z,19.30
2022-09-25T14:05:36.021Z,19.10
2022-09-25T14:08:13.921Z,19.20
2022-09-25T14:10:51.909Z,19.10
2022-09-25T14:13:25.267Z,19.20
2022-09-25T14:15:55.064Z,19.10
2022-09-25T14:18:52.652Z,19.10
2022-09-25T14:21:22.675Z,19.00
2022-09-25T14:23:55.397Z,19.10
2022-09-25T14:26:29.462Z,19.10
2022-09-25T14:28:58.006Z,19.10
2022-09-25T14:31:37.231Z,19.20
2022-09-25T14:34:27.470Z,19.10
2022-09-25T14:37:51.226Z,19.10
2022-09-25T14:40:33.847Z,19.00
2022-09-25T14:43:24.761Z,18.80
2022-09-25T14:46:00.277Z,18.80
2022-09-25T14:48:41.479Z,18.70
2022-09-25T14:51:13.629Z,18.50
2022-09-25T14:53:46.671Z,18.30
2022-09-25T14:56:15.225Z,18.30
2022-09-25T14:58:49.466Z,18.30
2022-09-25T15:01:24.619Z,18.30
2022-09-25T15:03:52.831Z,18.30
2022-09-25T15:06:29.288Z,18.30
2022-09-25T15:08:56.542Z,18.20
2022-09-25T15:11:27.188Z,18.40
2022-09-25T15:13:55.487Z,18.40
2022-09-25T15:16:44.047Z,18.40
2022-09-25T15:19:25.704Z,18.40
2022-09-25T15:21:53.883Z,18.40
2022-09-25T15:24:27.567Z,18.30
2022-09-25T15:27:03.827Z,18.30
2022-09-25T15:29:36.772Z,18.30
2022-09-25T15:32:05.750Z,18.20
2022-09-25T15:34:33.862Z,18.30
2022-09-25T15:37:25.771Z,18.30
2022-09-25T15:39:53.504Z,18.20
2022-09-25T15:42:20.635Z,18.20
2022-09-25T15:44:48.776Z,18.10
2022-09-25T15:47:34.368Z,17.90
2022-09-25T15:50:13.318Z,17.90
2022-09-25T15:52:40.305Z,17.90
2022-09-25T15:55:14.727Z,17.80
2022-09-25T15:57:42.246Z,17.80
2022-09-25T16:00:42.678Z,17.80
2022-09-25T16:03:34.316Z,17.60
2022-09-25T16:06:03.257Z,17.40
2022-09-25T16:08:32.057Z,17.30
2022-09-25T16:11:22.574Z,17.30
2022-09-25T16:14:11.959Z,17.20
2022-09-25T16:16:47.041Z,17.30
2022-09-25T16:19:30.026Z,17.00
2022-09-25T16:22:00.151Z,16.90
2022-09-25T16:24:29.152Z,16.80
2022-09-25T16:27:02.980Z,16.70
2022-09-25T16:29:39.195Z,16.60
2022-09-25T16:32:08.770Z,16.70
2022-09-25T16:34:38.641Z,16.60
2022-09-25T16:37:08.208Z,16.70
2022-09-25T16:39:39.689Z,16.70
2022-09-25T16:42:26.811Z,16.60
2022-09-25T16:45:29.789Z,16.60
2022-09-25T16:48:00.598Z,16.70
2022-09-25T16:50:33.086Z,16.60
2022-09-25T16:53:00.510Z,16.50
2022-09-25T16:55:33.629Z,16.40
2022-09-25T16:58:02.495Z,16.30
2022-09-25T17:00:29.956Z,16.40
2022-09-25T17:02:57.014Z,16.50
2022-09-25T17:05:27.665Z,16.30
2022-09-25T17:08:16.178Z,16.30
2022-09-25T17:10:43.438Z,16.20
2022-09-25T17:13:13.403Z,16.10
2022-09-25T17:15:40.488Z,16.10
2022-09-25T17:18:19.843Z,16.20
2022-09-25T17:20:50.621Z,16.10
2022-09-25T17:23:22.902Z,16.20
2022-09-25T17:26:00.827Z,16.20
2022-09-25T17:28:28.045Z,16.30
2022-09-25T17:30:55.109Z,16.30
2022-09-25T17:33:23.142Z,16.30
2022-09-25T17:36:05.909Z,16.10
2022-09-25T17:38:34.060Z,16.00
2022-09-25T17:41:11.873Z,15.90
2022-09-25T17:43:43.044Z,15.80
2022-09-25T17:46:10.478Z,15.80
2022-09-25T17:48:37.408Z,15.80
2022-09-25T17:51:13.258Z,15.70
2022-09-25T17:53:41.341Z,15.60
2022-09-25T17:56:10.830Z,15.50
2022-09-25T17:58:38.433Z,15.50
2022-09-25T18:01:13.900Z,15.40
2022-09-25T18:03:44.854Z,15.50
2022-09-25T18:06:11.663Z,15.50
2022-09-25T18:08:38.602Z,15.70
2022-09-25T18:11:05.472Z,15.70
2022-09-25T18:13:32.315Z,15.60
2022-09-25T18:16:00.421Z,15.70
2022-09-25T18:18:47.232Z,15.70
2022-09-25T18:21:32.875Z,15.70
2022-09-25T18:23:59.681Z,15.60
2022-09-25T18:26:31.008Z,15.60
2022-09-25T18:28:58.404Z,15.60
2022-09-25T18:31:26.273Z,15.50
2022-09-25T18:33:55.187Z,15.30
2022-09-25T18:36:24.042Z,15.40
2022-09-25T18:38:51.927Z,15.40
2022-09-25T18:41:18.774Z,15.40
2022-09-25T18:43:47.625Z,15.40
2022-09-25T18:46:14.587Z,15.50
2022-09-25T18:48:47.770Z,15.20
2022-09-25T18:51:16.047Z,15.20
2022-09-25T18:53:43.955Z,15.20
2022-09-25T18:56:12.419Z,15.10
2022-09-25T18:58:39.242Z,15.10
2022-09-25T19:01:08.337Z,15.10
2022-09-25T19:03:40.669Z,15.00
2022-09-25T19:06:07.789Z,15.00
2022-09-25T19:08:36.133Z,14.90
2022-09-25T19:11:03.060Z,14.90
2022-09-25T19:13:30.076Z,15.10
2022-09-25T19:15:58.975Z,15.00
2022-09-25T19:18:25.948Z,15.00
2022-09-25T19:20:54.295Z,14.90
2022-09-25T19:23:22.259Z,14.90
2022-09-25T19:25:53.153Z,14.90
2022-09-25T19:28:19.930Z,14.80
2022-09-25T19:30:56.627Z,14.60
2022-09-25T19:33:25.744Z,14.60
2022-09-25T19:36:00.466Z,14.40
2022-09-25T19:38:37.199Z,14.30
2022-09-25T19:41:15.758Z,14.20
2022-09-25T19:43:44.173Z,14.10
2022-09-25T19:46:17.230Z,14.00
2022-09-25T19:48:46.173Z,14.00
2022-09-25T19:51:16.472Z,14.00
2022-09-25T19:53:47.864Z,13.80
2022-09-25T19:56:15.358Z,13.70
2022-09-25T19:58:43.246Z,13.80
2022-09-25T20:01:11.629Z,13.70
2022-09-25T20:03:39.280Z,13.70
2022-09-25T20:06:08.773Z,13.60
2022-09-25T20:08:36.032Z,13.60
2022-09-25T20:11:19.227Z,13.50
2022-09-25T20:13:49.090Z,13.40
2022-09-25T20:16:18.721Z,13.30
2022-09-25T20:18:50.501Z,13.30
2022-09-25T20:21:23.381Z,13.30
2022-09-25T20:23:55.840Z,13.30
2022-09-25T20:26:23.803Z,13.30
2022-09-25T20:28:54.910Z,13.30
2022-09-25T20:31:22.086Z,13.20
2022-09-25T20:33:49.018Z,13.20
2022-09-25T20:36:16.993Z,13.10
2022-09-25T20:38:48.424Z,13.10
2022-09-25T20:41:15.397Z,13.00
2022-09-25T20:43:44.200Z,12.90
2022-09-25T20:46:14.042Z,12.80
2022-09-25T20:48:45.480Z,12.80
2022-09-25T20:51:15.534Z,12.80
2022-09-25T20:53:43.198Z,12.70
2022-09-25T20:56:13.575Z,12.80
2022-09-25T20:58:42.275Z,12.90
2022-09-25T21:01:14.758Z,13.10
2022-09-25T21:03:43.723Z,13.00
2022-09-25T21:06:14.163Z,12.90
2022-09-25T21:08:44.941Z,12.90
2022-09-25T21:11:13.337Z,12.90
2022-09-25T21:13:41.896Z,12.70
2022-09-25T21:16:13.923Z,12.70
2022-09-25T21:18:42.469Z,12.70
2022-09-25T21:21:16.017Z,12.60
2022-09-25T21:23:46.958Z,12.60
2022-09-25T21:26:15.154Z,12.50
2022-09-25T21:28:44.504Z,12.40
2022-09-25T21:31:14.812Z,12.30
2022-09-25T21:33:44.082Z,12.20
2022-09-25T21:36:15.289Z,12.20
2022-09-25T21:38:43.085Z,12.00
2022-09-25T21:41:13.559Z,12.10
2022-09-25T21:43:43.853Z,12.00
2022-09-25T21:46:18.770Z,12.00
2022-09-25T21:48:55.875Z,12.00
2022-09-25T21:51:30.793Z,12.00
2022-09-25T21:54:01.251Z,12.00
2022-09-25T21:56:31.778Z,12.00
2022-09-25T21:59:08.192Z,12.00
2022-09-25T22:01:38.812Z,12.00
2022-09-25T22:04:10.333Z,12.10
2022-09-25T22:06:40.866Z,12.10
2022-09-25T22:09:12.048Z,12.00
2022-09-25T22:11:40.019Z,12.10
2022-09-25T22:14:10.948Z,12.20
2022-09-25T22:16:45.593Z,12.30
2022-09-25T22:19:20.745Z,12.30
2022-09-25T22:21:49.457Z,12.30
2022-09-25T22:24:17.121Z,12.20
2022-09-25T22:26:46.666Z,12.20
2022-09-25T22:29:15.020Z,12.30
2022-09-25T22:31:44.787Z,12.40
2022-09-25T22:34:21.256Z,12.30
2022-09-25T22:36:51.604Z,12.30
2022-09-25T22:39:23.983Z,12.20
2022-09-25T22:41:53.119Z,12.10
2022-09-25T22:44:21.788Z,12.20
2022-09-25T22:46:50.061Z,12.00
2022-09-25T22:49:18.185Z,12.00
2022-09-25T22:51:46.073Z,11.90
2022-09-25T22:54:15.223Z,11.90
2022-09-25T22:56:43.757Z,11.90
2022-09-25T22:59:17.970Z,11.90
2022-09-25T23:01:52.669Z,11.90
2022-09-25T23:04:23.261Z,12.00
2022-09-25T23:06:50.409Z,12.00
2022-09-25T23:09:20.051Z,12.10
2022-09-25T23:11:48.053Z,12.00
2022-09-25T23:14:20.925Z,12.00
2022-09-25T23:16:49.680Z,12.00
2022-09-25T23:19:18.364Z,12.10
2022-09-25T23:21:46.726Z,12.00
2022-09-25T23:24:17.461Z,12.00
2022-09-25T23:26:45.887Z,12.00
2022-09-25T23:29:15.175Z,12.00
2022-09-25T23:31:43.974Z,11.90
2022-09-25T23:34:11.230Z,11.90
2022-09-25T23:36:39.364Z,11.90
2022-09-25T23:39:08.769Z,11.90
2022-09-25T23:41:38.880Z,12.00
2022-09-25T23:44:09.593Z,12.00
2022-09-25T23:46:39.705Z,12.00
2022-09-25T23:49:08.754Z,12.00
2022-09-25T23:51:36.037Z,12.00
2022-09-25T23:54:05.716Z,11.90
2022-09-25T23:56:35.890Z,12.00
2022-09-25T23:59:04.902Z,11.90
